createdAt,value
2019-05-25T00:03:35.645Z,78.25
2019-05-25T00:09:40.316Z,79.11
2019-05-25T00:15:44.954Z,78.58
2019-05-25T00:21:49.878Z,79.56
2019-05-25T00:27:54.440Z,79.77
2019-05-25T00:33:59.083Z,80.33
2019-05-25T00:40:05.634Z,81.82
2019-05-25T00:46:10.183Z,81.23
2019-05-25T00:52:14.743Z,81.08
2019-05-25T00:58:19.308Z,82.13
2019-05-25T01:04:23.871Z,82.85
2019-05-25T01:10:28.670Z,83.16
2019-05-25T01:16:33.241Z,83.81
2019-05-25T01:22:37.805Z,83.24
2019-05-25T01:28:42.358Z,83.76
2019-05-25T01:34:46.925Z,84.23
2019-05-25T01:40:51.731Z,85.05
2019-05-25T01:46:56.304Z,86.68
2019-05-25T01:53:00.857Z,86.91
2019-05-25T01:59:05.495Z,84.87
2019-05-25T02:05:10.465Z,84.57
2019-05-25T02:11:15.033Z,85.41
2019-05-25T02:17:19.670Z,85.72
2019-05-25T02:23:24.229Z,86.54
2019-05-25T02:29:28.805Z,86.51
2019-05-25T02:35:33.352Z,86.26
2019-05-25T02:41:38.290Z,86.02
2019-05-25T02:47:42.866Z,86.26
2019-05-25T02:53:47.494Z,86.50
2019-05-25T02:59:52.068Z,86.77
2019-05-25T03:05:57.990Z,87.11
2019-05-25T03:12:02.618Z,87.07
2019-05-25T03:18:07.227Z,86.82
2019-05-25T03:24:11.844Z,87.88
2019-05-25T03:30:18.261Z,87.85
2019-05-25T03:36:22.840Z,88.34
2019-05-25T03:42:27.407Z,88.32
2019-05-25T03:48:31.962Z,88.20
2019-05-25T03:54:36.541Z,88.41
2019-05-25T04:00:41.358Z,88.53
2019-05-25T04:06:45.987Z,88.64
2019-05-25T04:12:50.579Z,88.55
2019-05-25T04:18:55.152Z,87.93
2019-05-25T04:24:59.706Z,87.66
2019-05-25T04:31:04.548Z,87.29
2019-05-25T04:37:09.110Z,87.56
2019-05-25T04:43:13.679Z,87.37
2019-05-25T04:49:18.309Z,86.60
2019-05-25T04:55:22.896Z,86.56
2019-05-25T05:01:27.472Z,84.66
2019-05-25T05:07:32.027Z,85.59
2019-05-25T05:13:36.712Z,83.63
2019-05-25T05:19:41.278Z,83.04
2019-05-25T05:25:45.922Z,83.59
2019-05-25T05:31:50.627Z,80.88
2019-05-25T05:37:55.527Z,81.06
2019-05-25T05:44:01.598Z,81.12
2019-05-25T05:50:10.764Z,80.40
2019-05-25T05:56:15.428Z,79.57
2019-05-25T06:02:20.059Z,79.28
2019-05-25T06:08:24.631Z,78.91
2019-05-25T06:14:29.216Z,79.11
2019-05-25T06:20:33.845Z,78.59
2019-05-25T06:26:38.419Z,78.37
2019-05-25T06:32:43.145Z,78.11
2019-05-25T06:38:47.827Z,77.23
2019-05-25T06:44:52.403Z,77.34
2019-05-25T06:50:56.975Z,77.48
2019-05-25T06:57:01.543Z,79.34
2019-05-25T07:03:06.162Z,76.98
2019-05-25T07:09:10.799Z,77.14
2019-05-25T07:15:15.795Z,73.17
2019-05-25T07:21:20.421Z,72.19
2019-05-25T07:27:25.057Z,71.40
2019-05-25T07:33:29.680Z,69.43
2019-05-25T07:39:34.240Z,68.23
2019-05-25T07:45:38.814Z,68.18
2019-05-25T07:51:43.370Z,63.58
2019-05-25T07:57:48.002Z,62.49
2019-05-25T08:03:52.639Z,64.00
2019-05-25T08:09:57.226Z,66.55
2019-05-25T08:16:01.796Z,63.89
2019-05-25T08:22:06.515Z,63.61
2019-05-25T08:28:11.090Z,66.27
2019-05-25T08:34:16.468Z,68.67
2019-05-25T08:40:21.189Z,68.06
2019-05-25T08:46:25.763Z,68.46
2019-05-25T08:52:30.311Z,68.68
2019-05-25T08:58:47.586Z,69.91
2019-05-25T09:04:41.221Z,70.26
2019-05-25T09:10:45.809Z,70.44
2019-05-25T09:16:50.430Z,68.83
2019-05-25T09:22:54.996Z,68.08
2019-05-25T09:29:04.494Z,67.76
2019-05-25T09:35:09.417Z,67.82
2019-05-25T09:41:14.014Z,65.98
2019-05-25T09:47:18.578Z,66.46
2019-05-25T09:53:23.140Z,65.32
2019-05-25T09:59:27.698Z,65.30
2019-05-25T10:05:32.349Z,65.31
2019-05-25T10:11:36.976Z,66.13
2019-05-25T10:17:41.547Z,66.27
2019-05-25T10:23:46.092Z,66.26
2019-05-25T10:29:50.729Z,65.63
2019-05-25T10:35:55.285Z,65.75
2019-05-25T10:41:59.845Z,66.38
2019-05-25T10:48:04.604Z,64.59
2019-05-25T10:54:09.260Z,64.94
2019-05-25T11:00:14.632Z,64.33
2019-05-25T11:06:19.198Z,65.15
2019-05-25T11:12:25.999Z,62.83
2019-05-25T11:18:30.040Z,62.09
2019-05-25T11:24:34.684Z,62.30
2019-05-25T11:30:39.245Z,62.20
2019-05-25T11:36:43.816Z,59.23
2019-05-25T11:42:48.531Z,58.80
2019-05-25T11:48:53.133Z,55.84
2019-05-25T11:54:57.690Z,50.58
2019-05-25T12:01:02.365Z,53.69
2019-05-25T12:07:07.150Z,54.89
2019-05-25T12:13:11.722Z,57.38
2019-05-25T12:19:16.362Z,56.89
2019-05-25T12:25:21.181Z,57.25
2019-05-25T12:31:25.741Z,54.65
2019-05-25T12:37:30.301Z,56.98
2019-05-25T12:43:34.920Z,55.73
2019-05-25T12:49:49.985Z,56.50
2019-05-25T12:55:45.769Z,57.57
2019-05-25T13:01:50.328Z,58.47
2019-05-25T13:07:55.021Z,56.10
2019-05-25T13:14:13.672Z,52.55
2019-05-25T13:20:07.976Z,51.05
2019-05-25T13:26:12.618Z,49.48
2019-05-25T13:32:17.176Z,50.09
2019-05-25T13:38:21.765Z,49.74
2019-05-25T13:44:26.356Z,46.89
2019-05-25T13:50:30.914Z,46.06
2019-05-25T13:56:35.489Z,42.42
2019-05-25T14:02:40.134Z,44.36
2019-05-25T14:08:44.682Z,45.89
2019-05-25T14:14:49.415Z,44.96
2019-05-25T14:20:53.979Z,48.27
2019-05-25T14:26:58.535Z,45.69
2019-05-25T14:33:03.696Z,42.59
2019-05-25T14:39:11.505Z,40.45
2019-05-25T14:45:16.710Z,39.65
2019-05-25T14:51:21.288Z,40.18
2019-05-25T14:57:26.004Z,38.74
2019-05-25T15:03:30.707Z,38.19
2019-05-25T15:09:35.267Z,35.94
2019-05-25T15:15:39.831Z,38.08
2019-05-25T15:21:44.618Z,36.14
2019-05-25T15:27:49.827Z,35.49
2019-05-25T15:33:54.386Z,34.49
2019-05-25T15:39:58.955Z,35.72
2019-05-25T15:46:03.672Z,37.63
2019-05-25T15:52:08.464Z,35.50
2019-05-25T15:58:13.034Z,35.58
2019-05-25T16:04:17.736Z,36.30
2019-05-25T16:10:22.362Z,36.15
2019-05-25T16:16:30.087Z,36.96
2019-05-25T16:22:33.401Z,37.55
2019-05-25T16:28:38.019Z,38.59
2019-05-25T16:34:42.599Z,38.68
2019-05-25T16:40:47.157Z,37.22
2019-05-25T16:46:51.864Z,34.26
2019-05-25T16:52:56.579Z,32.02
2019-05-25T16:59:01.149Z,32.50
2019-05-25T17:05:07.016Z,36.85
2019-05-25T17:11:11.581Z,41.29
2019-05-25T17:17:16.152Z,43.02
2019-05-25T17:23:20.732Z,46.62
2019-05-25T17:29:25.308Z,44.48
2019-05-25T17:35:29.860Z,48.27
2019-05-25T17:41:34.429Z,51.08
2019-05-25T17:47:39.005Z,52.52
2019-05-25T17:53:43.663Z,53.68
2019-05-25T17:59:48.260Z,54.48
2019-05-25T18:05:52.872Z,55.23
2019-05-25T18:11:57.495Z,55.04
2019-05-25T18:18:02.068Z,57.90
2019-05-25T18:24:06.766Z,58.30
2019-05-25T18:30:12.742Z,57.56
2019-05-25T18:36:17.405Z,55.79
2019-05-25T18:42:22.345Z,54.50
2019-05-25T18:48:26.905Z,57.07
2019-05-25T18:54:31.492Z,59.21
2019-05-25T19:00:36.118Z,59.59
2019-05-25T19:06:41.039Z,59.11
2019-05-25T19:12:45.597Z,62.84
2019-05-25T19:18:50.229Z,62.62
2019-05-25T19:24:54.814Z,65.91
2019-05-25T19:30:59.378Z,68.06
2019-05-25T19:37:04.074Z,69.52
2019-05-25T19:43:08.699Z,71.48
2019-05-25T19:49:13.273Z,73.78
2019-05-25T19:55:17.904Z,74.85
2019-05-25T20:01:22.539Z,76.30
2019-05-25T20:07:27.100Z,77.36
2019-05-25T20:13:31.680Z,79.16
2019-05-25T20:19:36.256Z,78.71
2019-05-25T20:25:40.900Z,78.76
2019-05-25T20:31:45.460Z,78.04
2019-05-25T20:37:50.167Z,79.05
2019-05-25T20:43:54.754Z,79.34
2019-05-25T20:49:59.415Z,79.41
2019-05-25T20:56:04.044Z,79.76
2019-05-25T21:02:08.600Z,79.49
2019-05-25T21:08:13.210Z,79.74
2019-05-25T21:14:17.868Z,80.12
2019-05-25T21:20:22.496Z,79.89
2019-05-25T21:26:27.134Z,80.14
2019-05-25T21:32:31.720Z,80.64
2019-05-25T21:38:36.266Z,80.46
2019-05-25T21:44:40.836Z,81.11
2019-05-25T21:50:45.533Z,80.93
2019-05-25T21:56:50.267Z,81.24
2019-05-25T22:02:55.025Z,81.27
2019-05-25T22:08:59.677Z,80.89
2019-05-25T22:15:12.319Z,82.00
2019-05-25T22:21:16.863Z,81.96
2019-05-25T22:27:21.414Z,82.92
2019-05-25T22:33:26.006Z,82.38
2019-05-25T22:39:30.596Z,82.64
2019-05-25T22:45:35.213Z,82.98
2019-05-25T22:51:39.766Z,83.42
2019-05-25T22:57:44.341Z,83.25
2019-05-25T23:03:48.946Z,84.20
2019-05-25T23:09:53.489Z,83.74
2019-05-25T23:15:58.050Z,84.72
2019-05-25T23:22:02.697Z,84.44
2019-05-25T23:28:07.300Z,84.48
2019-05-25T23:34:11.871Z,84.99
2019-05-25T23:40:17.359Z,86.71
2019-05-25T23:46:21.985Z,86.54
2019-05-25T23:52:26.623Z,87.69
2019-05-25T23:58:31.200Z,87.10
